ニジネヴァルトフスク の空港の天気 - METARとTAF

Nizhnevartovsk ( USNN / NJC ) - ロシア ニジネヴァルトフスク
飛行場実況気象(Metar)
観測時間10/21 20:00 YEKT (10/21 15:00 UTC)
風向・風速西南西 1m/s
視程10km以上
天気現象
全天の8割程度の雲 雲底高度 430m
全天を覆う雲 雲底高度 910m
気温1℃
湿度93%
気圧1001hPa
METARUSNN 211500Z 24001MPS 9999 BKN014 OVC030 01/00 Q1001 R21/19//63 NOSIG RMK QFE746
過去の天気等 Google飛行場航空写真 Wunderground天気予報

過去48時間のMETAR

飛行場予報(TAF)
発表時間: 10/21 19:00 YEKT (10/21 14:00 UTC)
予報対象時間: 21日20時 YEKT ~ 22日20時 YEKT
風向・風速北 3m/s 瞬間風速 8m/s
視程5000m
天気現象弱いしゅう雪 もや
全天の8割程度の雲 雲底高度 150m
全天の8割程度の積乱雲 雲底高度 490m
21日20時 YEKT ~ 22日5時 YEKT に一時的に
風向・風速不定 1m/s
視程300m
天気現象
全天を覆う雲 鉛直視程 60m
22日8時 YEKT から
風向・風速北西 3m/s 瞬間風速 8m/s
視程6000m
天気現象弱いしゅう雪
全天の8割程度の積乱雲 雲底高度 520m
TAF USNN 211400Z 2115/2215 35003G08MPS 5000 -SHSN BR BKN005 BKN016CB
TEMPO 2115/2124 VRB01MPS 0300 FG VV002
FM220300 32003G08MPS 6000 -SHSN BKN017CB